sensor_id;sensor_type;location;lat;lon;timestamp;temperature;humidity
27188;DHT22;14708;50.872;5.306;2022-12-18T00:00:57;19.70;53.60
27188;DHT22;14708;50.872;5.306;2022-12-18T00:03:23;19.70;53.70
27188;DHT22;14708;50.872;5.306;2022-12-18T00:05:50;19.60;53.50
27188;DHT22;14708;50.872;5.306;2022-12-18T00:08:17;19.60;53.40
27188;DHT22;14708;50.872;5.306;2022-12-18T00:10:43;19.60;53.60
27188;DHT22;14708;50.872;5.306;2022-12-18T00:13:09;19.60;53.70
27188;DHT22;14708;50.872;5.306;2022-12-18T00:15:36;19.60;53.70
27188;DHT22;14708;50.872;5.306;2022-12-18T00:18:02;19.60;53.50
27188;DHT22;14708;50.872;5.306;2022-12-18T00:20:27;19.50;53.50
27188;DHT22;14708;50.872;5.306;2022-12-18T00:22:53;19.50;53.40
27188;DHT22;14708;50.872;5.306;2022-12-18T00:25:19;19.40;53.50
27188;DHT22;14708;50.872;5.306;2022-12-18T00:27:45;19.40;53.40
27188;DHT22;14708;50.872;5.306;2022-12-18T00:30:11;19.40;53.50
27188;DHT22;14708;50.872;5.306;2022-12-18T00:32:36;19.40;53.40
27188;DHT22;14708;50.872;5.306;2022-12-18T00:35:11;19.40;53.50
27188;DHT22;14708;50.872;5.306;2022-12-18T00:37:37;19.30;53.40
27188;DHT22;14708;50.872;5.306;2022-12-18T00:40:03;19.30;53.40
27188;DHT22;14708;50.872;5.306;2022-12-18T00:42:29;19.30;53.30
27188;DHT22;14708;50.872;5.306;2022-12-18T00:45:13;19.30;53.30
27188;DHT22;14708;50.872;5.306;2022-12-18T00:47:39;19.30;53.40
27188;DHT22;14708;50.872;5.306;2022-12-18T00:50:05;19.20;53.60
27188;DHT22;14708;50.872;5.306;2022-12-18T00:52:31;19.20;53.40
27188;DHT22;14708;50.872;5.306;2022-12-18T00:54:57;19.20;53.40
27188;DHT22;14708;50.872;5.306;2022-12-18T00:57:22;19.10;53.40
27188;DHT22;14708;50.872;5.306;2022-12-18T00:59:48;19.20;53.40
27188;DHT22;14708;50.872;5.306;2022-12-18T01:02:14;19.10;53.40
27188;DHT22;14708;50.872;5.306;2022-12-18T01:04:39;19.10;53.50
27188;DHT22;14708;50.872;5.306;2022-12-18T01:07:05;19.10;53.20
27188;DHT22;14708;50.872;5.306;2022-12-18T01:09:31;19.10;53.20
27188;DHT22;14708;50.872;5.306;2022-12-18T01:12:06;19.00;53.30
27188;DHT22;14708;50.872;5.306;2022-12-18T01:14:31;19.10;53.10
27188;DHT22;14708;50.872;5.306;2022-12-18T01:16:57;19.00;53.20
27188;DHT22;14708;50.872;5.306;2022-12-18T01:19:23;19.00;53.00
27188;DHT22;14708;50.872;5.306;2022-12-18T01:21:49;19.00;53.10
27188;DHT22;14708;50.872;5.306;2022-12-18T01:24:15;18.90;53.20
27188;DHT22;14708;50.872;5.306;2022-12-18T01:26:41;18.90;53.20
27188;DHT22;14708;50.872;5.306;2022-12-18T01:29:06;18.90;53.20
27188;DHT22;14708;50.872;5.306;2022-12-18T01:31:33;18.90;53.00
27188;DHT22;14708;50.872;5.306;2022-12-18T01:34:03;18.90;53.00
27188;DHT22;14708;50.872;5.306;2022-12-18T01:36:31;18.80;53.10
27188;DHT22;14708;50.872;5.306;2022-12-18T01:38:59;18.90;53.10
27188;DHT22;14708;50.872;5.306;2022-12-18T01:41:28;18.80;53.00
27188;DHT22;14708;50.872;5.306;2022-12-18T01:47:41;18.80;52.80
27188;DHT22;14708;50.872;5.306;2022-12-18T01:55:27;18.80;52.90
27188;DHT22;14708;50.872;5.306;2022-12-18T01:57:57;18.70;52.70
27188;DHT22;14708;50.872;5.306;2022-12-18T02:00:25;18.70;52.80
27188;DHT22;14708;50.872;5.306;2022-12-18T02:02:52;18.70;52.90
27188;DHT22;14708;50.872;5.306;2022-12-18T02:18:46;18.60;52.60
27188;DHT22;14708;50.872;5.306;2022-12-18T02:24:24;18.60;52.90
27188;DHT22;14708;50.872;5.306;2022-12-18T02:26:56;18.60;53.00
27188;DHT22;14708;50.872;5.306;2022-12-18T02:29:32;18.60;52.90
27188;DHT22;14708;50.872;5.306;2022-12-18T02:31:59;18.50;52.90
27188;DHT22;14708;50.872;5.306;2022-12-18T02:34:29;18.50;52.70
27188;DHT22;14708;50.872;5.306;2022-12-18T02:36:57;18.50;52.90
27188;DHT22;14708;50.872;5.306;2022-12-18T02:39:25;18.50;52.70
27188;DHT22;14708;50.872;5.306;2022-12-18T02:41:52;18.50;52.70
27188;DHT22;14708;50.872;5.306;2022-12-18T02:44:17;18.50;52.80
27188;DHT22;14708;50.872;5.306;2022-12-18T02:46:46;18.50;52.90
27188;DHT22;14708;50.872;5.306;2022-12-18T02:54:55;18.40;52.60
27188;DHT22;14708;50.872;5.306;2022-12-18T02:57:45;18.40;52.70
27188;DHT22;14708;50.872;5.306;2022-12-18T03:00:12;18.40;52.70
27188;DHT22;14708;50.872;5.306;2022-12-18T03:02:57;18.40;52.60
27188;DHT22;14708;50.872;5.306;2022-12-18T03:05:30;18.40;52.80
27188;DHT22;14708;50.872;5.306;2022-12-18T03:08:03;18.30;52.60
27188;DHT22;14708;50.872;5.306;2022-12-18T03:10:33;18.30;52.70
27188;DHT22;14708;50.872;5.306;2022-12-18T03:13:05;18.30;52.80
27188;DHT22;14708;50.872;5.306;2022-12-18T03:15:52;18.30;52.80
27188;DHT22;14708;50.872;5.306;2022-12-18T03:18:30;18.30;52.70
27188;DHT22;14708;50.872;5.306;2022-12-18T03:21:02;18.20;52.70
27188;DHT22;14708;50.872;5.306;2022-12-18T03:23:39;18.20;52.70
27188;DHT22;14708;50.872;5.306;2022-12-18T03:26:10;18.20;52.70
27188;DHT22;14708;50.872;5.306;2022-12-18T03:28:39;18.20;52.70
27188;DHT22;14708;50.872;5.306;2022-12-18T03:31:14;18.20;52.60
27188;DHT22;14708;50.872;5.306;2022-12-18T03:33:46;18.20;52.70
27188;DHT22;14708;50.872;5.306;2022-12-18T03:36:12;18.20;52.80
27188;DHT22;14708;50.872;5.306;2022-12-18T03:38:38;18.10;52.70
27188;DHT22;14708;50.872;5.306;2022-12-18T03:49:21;18.10;52.70
27188;DHT22;14708;50.872;5.306;2022-12-18T03:54:39;18.10;52.70
27188;DHT22;14708;50.872;5.306;2022-12-18T03:57:20;18.10;52.80
27188;DHT22;14708;50.872;5.306;2022-12-18T03:59:46;18.10;52.80
27188;DHT22;14708;50.872;5.306;2022-12-18T04:02:13;18.10;52.70
27188;DHT22;14708;50.872;5.306;2022-12-18T04:04:42;18.10;52.60
27188;DHT22;14708;50.872;5.306;2022-12-18T04:07:09;18.10;52.70
27188;DHT22;14708;50.872;5.306;2022-12-18T04:09:36;18.00;52.50
27188;DHT22;14708;50.872;5.306;2022-12-18T04:12:04;18.00;52.70
27188;DHT22;14708;50.872;5.306;2022-12-18T04:14:29;18.00;52.50
27188;DHT22;14708;50.872;5.306;2022-12-18T04:16:55;18.00;52.50
27188;DHT22;14708;50.872;5.306;2022-12-18T04:19:21;18.00;52.40
27188;DHT22;14708;50.872;5.306;2022-12-18T04:21:46;18.00;52.60
27188;DHT22;14708;50.872;5.306;2022-12-18T04:24:12;18.10;52.40
27188;DHT22;14708;50.872;5.306;2022-12-18T04:26:38;18.10;52.30
27188;DHT22;14708;50.872;5.306;2022-12-18T04:29:03;18.00;52.40
27188;DHT22;14708;50.872;5.306;2022-12-18T04:31:29;18.00;52.20
27188;DHT22;14708;50.872;5.306;2022-12-18T04:33:54;18.00;52.30
27188;DHT22;14708;50.872;5.306;2022-12-18T04:36:20;18.00;52.30
27188;DHT22;14708;50.872;5.306;2022-12-18T04:39:04;18.00;52.30
27188;DHT22;14708;50.872;5.306;2022-12-18T04:41:29;18.00;52.30
27188;DHT22;14708;50.872;5.306;2022-12-18T04:43:55;18.00;52.50
27188;DHT22;14708;50.872;5.306;2022-12-18T04:46:21;18.00;52.30
27188;DHT22;14708;50.872;5.306;2022-12-18T04:48:47;18.00;52.00
27188;DHT22;14708;50.872;5.306;2022-12-18T04:51:12;18.00;52.20
27188;DHT22;14708;50.872;5.306;2022-12-18T04:53:38;18.00;52.00
27188;DHT22;14708;50.872;5.306;2022-12-18T04:56:05;18.00;52.00
27188;DHT22;14708;50.872;5.306;2022-12-18T04:58:30;18.00;52.10
27188;DHT22;14708;50.872;5.306;2022-12-18T05:00:56;18.00;52.00
27188;DHT22;14708;50.872;5.306;2022-12-18T05:03:22;18.00;51.80
27188;DHT22;14708;50.872;5.306;2022-12-18T05:05:50;18.00;51.80
27188;DHT22;14708;50.872;5.306;2022-12-18T05:08:17;18.00;51.80
27188;DHT22;14708;50.872;5.306;2022-12-18T05:10:42;18.00;51.90
27188;DHT22;14708;50.872;5.306;2022-12-18T05:13:08;18.00;51.90
27188;DHT22;14708;50.872;5.306;2022-12-18T05:15:34;18.00;51.90
27188;DHT22;14708;50.872;5.306;2022-12-18T05:18:17;18.00;51.80
27188;DHT22;14708;50.872;5.306;2022-12-18T05:20:43;18.00;51.70
27188;DHT22;14708;50.872;5.306;2022-12-18T05:23:08;18.00;51.70
27188;DHT22;14708;50.872;5.306;2022-12-18T05:25:34;18.00;51.80
27188;DHT22;14708;50.872;5.306;2022-12-18T05:28:00;17.90;51.70
27188;DHT22;14708;50.872;5.306;2022-12-18T05:30:26;17.90;51.80
27188;DHT22;14708;50.872;5.306;2022-12-18T05:32:51;17.90;51.80
27188;DHT22;14708;50.872;5.306;2022-12-18T05:35:17;17.90;51.80
27188;DHT22;14708;50.872;5.306;2022-12-18T05:37:43;17.90;51.60
27188;DHT22;14708;50.872;5.306;2022-12-18T05:40:09;17.90;51.60
27188;DHT22;14708;50.872;5.306;2022-12-18T05:42:35;17.90;51.70
27188;DHT22;14708;50.872;5.306;2022-12-18T05:45:00;17.90;51.70
27188;DHT22;14708;50.872;5.306;2022-12-18T05:47:27;17.90;51.80
27188;DHT22;14708;50.872;5.306;2022-12-18T05:49:53;17.90;51.80
27188;DHT22;14708;50.872;5.306;2022-12-18T05:52:21;17.90;51.80
27188;DHT22;14708;50.872;5.306;2022-12-18T05:54:47;17.90;51.90
27188;DHT22;14708;50.872;5.306;2022-12-18T05:57:33;17.90;51.70
27188;DHT22;14708;50.872;5.306;2022-12-18T05:59:59;17.90;51.70
27188;DHT22;14708;50.872;5.306;2022-12-18T06:02:24;17.90;51.80
27188;DHT22;14708;50.872;5.306;2022-12-18T06:04:50;17.90;51.50
27188;DHT22;14708;50.872;5.306;2022-12-18T06:07:15;18.10;51.20
27188;DHT22;14708;50.872;5.306;2022-12-18T06:09:41;18.10;49.90
27188;DHT22;14708;50.872;5.306;2022-12-18T06:12:07;18.10;49.40
27188;DHT22;14708;50.872;5.306;2022-12-18T06:14:32;18.10;49.30
27188;DHT22;14708;50.872;5.306;2022-12-18T06:16:58;18.10;49.50
27188;DHT22;14708;50.872;5.306;2022-12-18T06:19:24;18.20;49.90
27188;DHT22;14708;50.872;5.306;2022-12-18T06:21:50;18.40;49.80
27188;DHT22;14708;50.872;5.306;2022-12-18T06:24:16;18.50;49.40
27188;DHT22;14708;50.872;5.306;2022-12-18T06:26:42;18.60;49.50
27188;DHT22;14708;50.872;5.306;2022-12-18T06:29:07;18.70;49.00
27188;DHT22;14708;50.872;5.306;2022-12-18T06:31:33;18.80;49.00
27188;DHT22;14708;50.872;5.306;2022-12-18T06:34:01;18.90;49.00
27188;DHT22;14708;50.872;5.306;2022-12-18T06:36:36;19.00;48.80
27188;DHT22;14708;50.872;5.306;2022-12-18T06:39:02;19.10;48.60
27188;DHT22;14708;50.872;5.306;2022-12-18T06:41:28;19.10;48.50
27188;DHT22;14708;50.872;5.306;2022-12-18T06:43:53;19.10;48.50
27188;DHT22;14708;50.872;5.306;2022-12-18T06:46:19;19.10;48.70
27188;DHT22;14708;50.872;5.306;2022-12-18T06:48:49;19.10;48.80
27188;DHT22;14708;50.872;5.306;2022-12-18T06:51:17;19.10;49.20
27188;DHT22;14708;50.872;5.306;2022-12-18T06:53:43;19.00;48.90
27188;DHT22;14708;50.872;5.306;2022-12-18T06:56:09;18.90;49.10
27188;DHT22;14708;50.872;5.306;2022-12-18T06:58:34;19.00;49.50
27188;DHT22;14708;50.872;5.306;2022-12-18T07:01:05;19.00;49.20
27188;DHT22;14708;50.872;5.306;2022-12-18T07:03:31;19.00;49.60
27188;DHT22;14708;50.872;5.306;2022-12-18T07:05:57;19.00;48.70
27188;DHT22;14708;50.872;5.306;2022-12-18T07:08:22;18.80;49.30
27188;DHT22;14708;50.872;5.306;2022-12-18T07:10:48;18.70;49.50
27188;DHT22;14708;50.872;5.306;2022-12-18T07:13:16;18.70;49.50
27188;DHT22;14708;50.872;5.306;2022-12-18T07:15:48;18.70;49.60
27188;DHT22;14708;50.872;5.306;2022-12-18T07:18:16;18.80;49.60
27188;DHT22;14708;50.872;5.306;2022-12-18T07:20:42;18.90;49.60
27188;DHT22;14708;50.872;5.306;2022-12-18T07:23:07;18.90;48.00
27188;DHT22;14708;50.872;5.306;2022-12-18T07:25:34;19.00;48.60
27188;DHT22;14708;50.872;5.306;2022-12-18T07:28:00;19.10;48.80
27188;DHT22;14708;50.872;5.306;2022-12-18T07:30:26;19.20;49.10
27188;DHT22;14708;50.872;5.306;2022-12-18T07:32:52;19.20;48.90
27188;DHT22;14708;50.872;5.306;2022-12-18T07:35:17;19.30;48.80
27188;DHT22;14708;50.872;5.306;2022-12-18T07:37:44;19.30;48.90
27188;DHT22;14708;50.872;5.306;2022-12-18T07:40:10;19.30;49.10
27188;DHT22;14708;50.872;5.306;2022-12-18T07:42:36;19.30;49.00
27188;DHT22;14708;50.872;5.306;2022-12-18T07:45:03;19.20;49.30
27188;DHT22;14708;50.872;5.306;2022-12-18T07:47:29;19.20;49.10
27188;DHT22;14708;50.872;5.306;2022-12-18T07:49:55;19.10;49.50
27188;DHT22;14708;50.872;5.306;2022-12-18T07:52:21;19.10;49.70
27188;DHT22;14708;50.872;5.306;2022-12-18T07:54:46;19.20;47.80
27188;DHT22;14708;50.872;5.306;2022-12-18T07:57:14;19.10;46.10
27188;DHT22;14708;50.872;5.306;2022-12-18T07:59:41;19.10;46.60
27188;DHT22;14708;50.872;5.306;2022-12-18T08:02:06;19.10;47.60
27188;DHT22;14708;50.872;5.306;2022-12-18T08:04:34;19.20;47.90
27188;DHT22;14708;50.872;5.306;2022-12-18T08:07:03;19.40;48.20
27188;DHT22;14708;50.872;5.306;2022-12-18T08:09:28;19.50;47.80
27188;DHT22;14708;50.872;5.306;2022-12-18T08:11:54;19.60;47.90
27188;DHT22;14708;50.872;5.306;2022-12-18T08:14:20;19.60;48.00
27188;DHT22;14708;50.872;5.306;2022-12-18T08:16:45;19.60;48.00
27188;DHT22;14708;50.872;5.306;2022-12-18T08:19:11;19.60;49.00
27188;DHT22;14708;50.872;5.306;2022-12-18T08:21:37;19.60;50.20
27188;DHT22;14708;50.872;5.306;2022-12-18T08:24:06;19.60;51.10
27188;DHT22;14708;50.872;5.306;2022-12-18T08:26:31;19.60;50.50
27188;DHT22;14708;50.872;5.306;2022-12-18T08:28:59;19.60;50.90
27188;DHT22;14708;50.872;5.306;2022-12-18T08:31:29;19.60;53.20
27188;DHT22;14708;50.872;5.306;2022-12-18T08:33:58;19.50;53.40
27188;DHT22;14708;50.872;5.306;2022-12-18T08:36:25;19.50;53.80
27188;DHT22;14708;50.872;5.306;2022-12-18T08:39:08;19.40;51.40
27188;DHT22;14708;50.872;5.306;2022-12-18T08:41:45;19.40;51.80
27188;DHT22;14708;50.872;5.306;2022-12-18T08:44:31;19.40;52.00
27188;DHT22;14708;50.872;5.306;2022-12-18T08:47:26;19.40;51.90
27188;DHT22;14708;50.872;5.306;2022-12-18T08:49:53;19.30;50.10
27188;DHT22;14708;50.872;5.306;2022-12-18T08:52:19;19.30;50.90
27188;DHT22;14708;50.872;5.306;2022-12-18T08:54:45;19.30;51.10
27188;DHT22;14708;50.872;5.306;2022-12-18T08:57:11;19.30;51.10
27188;DHT22;14708;50.872;5.306;2022-12-18T08:59:36;19.30;51.20
27188;DHT22;14708;50.872;5.306;2022-12-18T09:02:02;19.30;50.30
27188;DHT22;14708;50.872;5.306;2022-12-18T09:04:31;19.20;49.40
27188;DHT22;14708;50.872;5.306;2022-12-18T09:07:00;19.30;49.90
27188;DHT22;14708;50.872;5.306;2022-12-18T09:09:29;19.50;49.70
27188;DHT22;14708;50.872;5.306;2022-12-18T09:11:55;19.60;49.90
27188;DHT22;14708;50.872;5.306;2022-12-18T09:14:21;19.70;50.00
27188;DHT22;14708;50.872;5.306;2022-12-18T09:16:47;19.80;50.30
27188;DHT22;14708;50.872;5.306;2022-12-18T09:19:13;19.90;51.10
27188;DHT22;14708;50.872;5.306;2022-12-18T09:21:41;19.90;50.40
27188;DHT22;14708;50.872;5.306;2022-12-18T09:24:12;19.90;50.90
27188;DHT22;14708;50.872;5.306;2022-12-18T09:26:39;19.90;50.90
27188;DHT22;14708;50.872;5.306;2022-12-18T09:29:05;20.00;51.00
27188;DHT22;14708;50.872;5.306;2022-12-18T09:31:33;20.00;51.40
27188;DHT22;14708;50.872;5.306;2022-12-18T09:33:59;20.10;51.30
27188;DHT22;14708;50.872;5.306;2022-12-18T09:36:24;20.20;51.40
27188;DHT22;14708;50.872;5.306;2022-12-18T09:38:50;20.20;50.70
27188;DHT22;14708;50.872;5.306;2022-12-18T09:44:21;20.30;48.70
27188;DHT22;14708;50.872;5.306;2022-12-18T09:49:44;20.00;50.50
27188;DHT22;14708;50.872;5.306;2022-12-18T09:52:23;19.80;50.90
27188;DHT22;14708;50.872;5.306;2022-12-18T09:54:55;19.80;51.20
27188;DHT22;14708;50.872;5.306;2022-12-18T09:57:23;19.70;51.10
27188;DHT22;14708;50.872;5.306;2022-12-18T09:59:54;19.60;51.70
27188;DHT22;14708;50.872;5.306;2022-12-18T10:02:25;19.50;51.00
27188;DHT22;14708;50.872;5.306;2022-12-18T10:05:11;19.50;51.00
27188;DHT22;14708;50.872;5.306;2022-12-18T10:21:26;19.80;68.20
27188;DHT22;14708;50.872;5.306;2022-12-18T10:26:21;19.80;66.20
27188;DHT22;14708;50.872;5.306;2022-12-18T10:28:47;19.70;65.60
27188;DHT22;14708;50.872;5.306;2022-12-18T10:31:18;19.70;63.30
27188;DHT22;14708;50.872;5.306;2022-12-18T10:33:44;19.70;63.60
27188;DHT22;14708;50.872;5.306;2022-12-18T10:36:10;19.60;65.10
27188;DHT22;14708;50.872;5.306;2022-12-18T10:38:36;19.80;60.30
27188;DHT22;14708;50.872;5.306;2022-12-18T10:43:38;19.70;56.70
27188;DHT22;14708;50.872;5.306;2022-12-18T10:46:19;19.70;56.40
27188;DHT22;14708;50.872;5.306;2022-12-18T10:53:59;19.70;51.10
27188;DHT22;14708;50.872;5.306;2022-12-18T10:56:27;19.60;50.30
27188;DHT22;14708;50.872;5.306;2022-12-18T10:59:05;19.60;48.70
27188;DHT22;14708;50.872;5.306;2022-12-18T11:04:19;19.50;49.30
27188;DHT22;14708;50.872;5.306;2022-12-18T11:06:57;19.50;50.70
27188;DHT22;14708;50.872;5.306;2022-12-18T11:09:34;19.60;52.10
27188;DHT22;14708;50.872;5.306;2022-12-18T11:14:52;19.70;52.70
27188;DHT22;14708;50.872;5.306;2022-12-18T11:17:30;19.80;52.60
27188;DHT22;14708;50.872;5.306;2022-12-18T11:19:58;19.80;52.70
27188;DHT22;14708;50.872;5.306;2022-12-18T11:22:30;19.80;52.70
27188;DHT22;14708;50.872;5.306;2022-12-18T11:27:58;19.80;52.80
27188;DHT22;14708;50.872;5.306;2022-12-18T11:30:32;19.80;52.80
27188;DHT22;14708;50.872;5.306;2022-12-18T11:33:14;19.70;52.70
27188;DHT22;14708;50.872;5.306;2022-12-18T11:35:57;19.70;52.50
27188;DHT22;14708;50.872;5.306;2022-12-18T11:38:40;19.70;50.00
27188;DHT22;14708;50.872;5.306;2022-12-18T11:41:29;19.60;50.70
27188;DHT22;14708;50.872;5.306;2022-12-18T11:44:24;19.60;51.20
27188;DHT22;14708;50.872;5.306;2022-12-18T11:47:05;19.60;51.60
27188;DHT22;14708;50.872;5.306;2022-12-18T11:49:35;19.70;51.80
27188;DHT22;14708;50.872;5.306;2022-12-18T11:54:38;19.60;52.20
27188;DHT22;14708;50.872;5.306;2022-12-18T11:59:55;19.50;52.70
27188;DHT22;14708;50.872;5.306;2022-12-18T12:10:39;19.70;54.00
27188;DHT22;14708;50.872;5.306;2022-12-18T12:13:14;19.80;54.30
27188;DHT22;14708;50.872;5.306;2022-12-18T12:15:54;19.80;54.40
27188;DHT22;14708;50.872;5.306;2022-12-18T12:18:51;19.90;54.60
27188;DHT22;14708;50.872;5.306;2022-12-18T12:38:05;19.50;53.90
27188;DHT22;14708;50.872;5.306;2022-12-18T12:40:35;19.50;54.50
27188;DHT22;14708;50.872;5.306;2022-12-18T12:46:09;19.50;54.40
27188;DHT22;14708;50.872;5.306;2022-12-18T12:48:48;19.50;54.40
27188;DHT22;14708;50.872;5.306;2022-12-18T12:53:41;19.60;54.20
27188;DHT22;14708;50.872;5.306;2022-12-18T12:56:08;19.60;54.00
27188;DHT22;14708;50.872;5.306;2022-12-18T13:06:28;19.60;53.90
27188;DHT22;14708;50.872;5.306;2022-12-18T13:08:59;19.60;53.90
27188;DHT22;14708;50.872;5.306;2022-12-18T13:11:45;19.50;53.90
27188;DHT22;14708;50.872;5.306;2022-12-18T13:14:40;19.50;54.10
27188;DHT22;14708;50.872;5.306;2022-12-18T13:20:13;19.50;54.10
27188;DHT22;14708;50.872;5.306;2022-12-18T13:22:47;19.50;53.90
27188;DHT22;14708;50.872;5.306;2022-12-18T13:25:36;19.50;53.90
27188;DHT22;14708;50.872;5.306;2022-12-18T13:30:41;19.60;53.80
27188;DHT22;14708;50.872;5.306;2022-12-18T13:38:35;19.50;54.10
27188;DHT22;14708;50.872;5.306;2022-12-18T13:43:46;19.50;54.00
27188;DHT22;14708;50.872;5.306;2022-12-18T13:46:47;19.50;54.00
27188;DHT22;14708;50.872;5.306;2022-12-18T13:51:43;19.40;54.20
27188;DHT22;14708;50.872;5.306;2022-12-18T13:54:20;19.40;54.20
27188;DHT22;14708;50.872;5.306;2022-12-18T13:56:48;19.50;54.20
27188;DHT22;14708;50.872;5.306;2022-12-18T13:59:17;19.50;54.00
27188;DHT22;14708;50.872;5.306;2022-12-18T14:01:48;19.50;53.90
27188;DHT22;14708;50.872;5.306;2022-12-18T14:06:42;19.60;53.90
27188;DHT22;14708;50.872;5.306;2022-12-18T14:09:17;19.60;53.60
27188;DHT22;14708;50.872;5.306;2022-12-18T14:11:51;19.60;53.70
27188;DHT22;14708;50.872;5.306;2022-12-18T14:14:18;19.60;53.60
27188;DHT22;14708;50.872;5.306;2022-12-18T14:16:44;19.60;53.70
27188;DHT22;14708;50.872;5.306;2022-12-18T14:19:16;19.50;53.70
27188;DHT22;14708;50.872;5.306;2022-12-18T14:21:49;19.50;53.60
27188;DHT22;14708;50.872;5.306;2022-12-18T14:24:19;19.40;53.80
27188;DHT22;14708;50.872;5.306;2022-12-18T14:26:45;19.40;53.80
27188;DHT22;14708;50.872;5.306;2022-12-18T14:29:28;19.40;53.90
27188;DHT22;14708;50.872;5.306;2022-12-18T14:32:29;19.50;53.90
27188;DHT22;14708;50.872;5.306;2022-12-18T14:34:55;19.50;53.70
27188;DHT22;14708;50.872;5.306;2022-12-18T14:37:23;19.60;53.80
27188;DHT22;14708;50.872;5.306;2022-12-18T14:39:57;19.60;53.60
27188;DHT22;14708;50.872;5.306;2022-12-18T14:42:26;19.70;53.60
27188;DHT22;14708;50.872;5.306;2022-12-18T14:45:32;19.70;53.30
27188;DHT22;14708;50.872;5.306;2022-12-18T14:47:58;19.60;53.30
27188;DHT22;14708;50.872;5.306;2022-12-18T14:50:25;19.60;53.80
27188;DHT22;14708;50.872;5.306;2022-12-18T14:52:51;19.50;53.30
27188;DHT22;14708;50.872;5.306;2022-12-18T14:55:19;19.50;53.40
27188;DHT22;14708;50.872;5.306;2022-12-18T14:57:45;19.40;53.60
27188;DHT22;14708;50.872;5.306;2022-12-18T15:00:17;19.40;53.70
27188;DHT22;14708;50.872;5.306;2022-12-18T15:02:46;19.40;53.50
27188;DHT22;14708;50.872;5.306;2022-12-18T15:07:55;19.50;53.40
27188;DHT22;14708;50.872;5.306;2022-12-18T15:10:22;19.50;53.40
27188;DHT22;14708;50.872;5.306;2022-12-18T15:20:24;19.60;53.10
27188;DHT22;14708;50.872;5.306;2022-12-18T15:22:50;19.60;53.10
27188;DHT22;14708;50.872;5.306;2022-12-18T15:25:42;19.60;52.90
27188;DHT22;14708;50.872;5.306;2022-12-18T15:28:39;19.50;53.10
27188;DHT22;14708;50.872;5.306;2022-12-18T15:33:44;19.40;53.30
27188;DHT22;14708;50.872;5.306;2022-12-18T15:36:16;19.40;53.30
27188;DHT22;14708;50.872;5.306;2022-12-18T15:38:51;19.40;53.30
27188;DHT22;14708;50.872;5.306;2022-12-18T15:41:20;19.50;53.30
27188;DHT22;14708;50.872;5.306;2022-12-18T15:43:49;19.50;53.10
27188;DHT22;14708;50.872;5.306;2022-12-18T15:46:17;19.60;53.00
27188;DHT22;14708;50.872;5.306;2022-12-18T15:48:44;19.60;52.90
27188;DHT22;14708;50.872;5.306;2022-12-18T15:53:53;19.70;52.80
27188;DHT22;14708;50.872;5.306;2022-12-18T15:56:20;19.60;52.60
27188;DHT22;14708;50.872;5.306;2022-12-18T15:59:15;19.60;52.70
27188;DHT22;14708;50.872;5.306;2022-12-18T16:01:43;19.60;52.70
27188;DHT22;14708;50.872;5.306;2022-12-18T16:04:14;19.50;53.00
27188;DHT22;14708;50.872;5.306;2022-12-18T16:06:41;19.40;52.80
27188;DHT22;14708;50.872;5.306;2022-12-18T16:09:07;19.40;53.00
27188;DHT22;14708;50.872;5.306;2022-12-18T16:11:34;19.40;53.10
27188;DHT22;14708;50.872;5.306;2022-12-18T16:14:24;19.40;53.10
27188;DHT22;14708;50.872;5.306;2022-12-18T16:17:02;19.50;51.10
27188;DHT22;14708;50.872;5.306;2022-12-18T16:19:28;19.70;51.70
27188;DHT22;14708;50.872;5.306;2022-12-18T16:21:56;19.70;51.60
27188;DHT22;14708;50.872;5.306;2022-12-18T16:24:27;19.80;51.50
27188;DHT22;14708;50.872;5.306;2022-12-18T16:26:56;19.90;51.30
27188;DHT22;14708;50.872;5.306;2022-12-18T16:29:25;20.00;51.30
27188;DHT22;14708;50.872;5.306;2022-12-18T16:31:57;20.10;51.40
27188;DHT22;14708;50.872;5.306;2022-12-18T16:34:31;20.10;51.30
27188;DHT22;14708;50.872;5.306;2022-12-18T16:36:59;20.20;51.20
27188;DHT22;14708;50.872;5.306;2022-12-18T16:39:25;20.30;51.40
27188;DHT22;14708;50.872;5.306;2022-12-18T16:41:51;20.30;51.20
27188;DHT22;14708;50.872;5.306;2022-12-18T16:44:17;20.30;51.10
27188;DHT22;14708;50.872;5.306;2022-12-18T16:46:43;20.30;51.10
27188;DHT22;14708;50.872;5.306;2022-12-18T16:49:11;20.40;51.10
27188;DHT22;14708;50.872;5.306;2022-12-18T16:51:37;20.30;51.20
27188;DHT22;14708;50.872;5.306;2022-12-18T16:54:03;20.30;51.10
27188;DHT22;14708;50.872;5.306;2022-12-18T16:56:29;20.30;51.40
27188;DHT22;14708;50.872;5.306;2022-12-18T16:58:58;20.40;51.60
27188;DHT22;14708;50.872;5.306;2022-12-18T17:01:25;20.40;51.50
27188;DHT22;14708;50.872;5.306;2022-12-18T17:03:58;20.50;51.70
27188;DHT22;14708;50.872;5.306;2022-12-18T17:06:26;20.50;51.80
27188;DHT22;14708;50.872;5.306;2022-12-18T17:08:59;20.60;51.60
27188;DHT22;14708;50.872;5.306;2022-12-18T17:11:26;20.70;51.70
27188;DHT22;14708;50.872;5.306;2022-12-18T17:13:52;20.80;51.60
27188;DHT22;14708;50.872;5.306;2022-12-18T17:16:18;20.90;51.50
27188;DHT22;14708;50.872;5.306;2022-12-18T17:18:44;20.90;51.20
27188;DHT22;14708;50.872;5.306;2022-12-18T17:21:10;21.00;51.30
27188;DHT22;14708;50.872;5.306;2022-12-18T17:23:37;20.90;51.30
27188;DHT22;14708;50.872;5.306;2022-12-18T17:26:03;21.00;51.40
27188;DHT22;14708;50.872;5.306;2022-12-18T17:28:32;21.00;51.60
27188;DHT22;14708;50.872;5.306;2022-12-18T17:30:57;20.90;51.40
27188;DHT22;14708;50.872;5.306;2022-12-18T17:33:23;20.90;51.70
27188;DHT22;14708;50.872;5.306;2022-12-18T17:35:49;20.90;51.70
27188;DHT22;14708;50.872;5.306;2022-12-18T17:38:16;21.00;51.30
27188;DHT22;14708;50.872;5.306;2022-12-18T17:40:42;21.00;51.50
27188;DHT22;14708;50.872;5.306;2022-12-18T17:43:09;20.90;51.70
27188;DHT22;14708;50.872;5.306;2022-12-18T17:45:36;20.90;51.90
27188;DHT22;14708;50.872;5.306;2022-12-18T17:48:03;20.90;52.20
27188;DHT22;14708;50.872;5.306;2022-12-18T17:50:28;20.90;52.20
27188;DHT22;14708;50.872;5.306;2022-12-18T17:52:55;20.80;52.20
27188;DHT22;14708;50.872;5.306;2022-12-18T17:55:21;20.90;52.30
27188;DHT22;14708;50.872;5.306;2022-12-18T17:57:47;20.90;52.30
27188;DHT22;14708;50.872;5.306;2022-12-18T18:00:13;21.00;52.50
27188;DHT22;14708;50.872;5.306;2022-12-18T18:02:38;21.10;52.50
27188;DHT22;14708;50.872;5.306;2022-12-18T18:05:05;21.10;52.40
27188;DHT22;14708;50.872;5.306;2022-12-18T18:07:30;21.10;52.40
27188;DHT22;14708;50.872;5.306;2022-12-18T18:09:56;21.10;52.50
27188;DHT22;14708;50.872;5.306;2022-12-18T18:12:22;21.10;52.50
27188;DHT22;14708;50.872;5.306;2022-12-18T18:15:06;21.10;52.50
27188;DHT22;14708;50.872;5.306;2022-12-18T18:17:32;21.00;52.50
27188;DHT22;14708;50.872;5.306;2022-12-18T18:19:58;21.00;52.60
27188;DHT22;14708;50.872;5.306;2022-12-18T18:22:23;21.00;53.00